createdAt,value
2023-08-19T00:01:09.739Z,68.07
2023-08-19T00:03:37.120Z,68.69
2023-08-19T00:06:10.782Z,68.29
2023-08-19T00:08:38.332Z,67.14
2023-08-19T00:11:05.934Z,67.34
2023-08-19T00:13:33.383Z,68.18
2023-08-19T00:16:05.351Z,68.53
2023-08-19T00:18:32.861Z,69.33
2023-08-19T00:21:00.147Z,69.37
2023-08-19T00:23:27.433Z,69.15
2023-08-19T00:25:54.750Z,69.54
2023-08-19T00:28:24.813Z,69.27
2023-08-19T00:30:52.228Z,68.91
2023-08-19T00:33:19.600Z,69.12
2023-08-19T00:35:51.921Z,68.38
2023-08-19T00:38:19.319Z,68.45
2023-08-19T00:40:47.070Z,69.02
2023-08-19T00:43:14.408Z,68.92
2023-08-19T00:45:47.683Z,69.24
2023-08-19T00:48:18.464Z,69.35
2023-08-19T00:50:46.351Z,68.87
2023-08-19T00:53:15.068Z,68.60
2023-08-19T00:55:42.685Z,68.05
2023-08-19T00:58:11.465Z,68.34
2023-08-19T01:00:39.360Z,68.90
2023-08-19T01:03:07.590Z,68.56
2023-08-19T01:05:50.982Z,68.58
2023-08-19T01:08:26.912Z,68.36
2023-08-19T01:11:07.144Z,68.78
2023-08-19T01:13:46.059Z,67.87
2023-08-19T01:16:21.904Z,67.84
2023-08-19T01:18:49.946Z,67.82
2023-08-19T01:21:21.229Z,68.68
2023-08-19T01:23:50.144Z,69.74
2023-08-19T01:26:18.648Z,68.66
2023-08-19T01:28:46.798Z,69.60
2023-08-19T01:31:14.109Z,70.72
2023-08-19T01:33:42.104Z,70.58
2023-08-19T01:36:30.660Z,71.38
2023-08-19T01:39:06.734Z,71.15
2023-08-19T01:41:35.669Z,71.12
2023-08-19T01:44:04.097Z,71.60
2023-08-19T01:46:31.569Z,71.93
2023-08-19T01:48:58.957Z,72.50
2023-08-19T01:51:31.669Z,72.85
2023-08-19T01:53:59.179Z,72.89
2023-08-19T01:56:26.540Z,73.43
2023-08-19T01:58:55.454Z,73.63
2023-08-19T02:01:23.348Z,73.45
2023-08-19T02:03:50.777Z,73.30
2023-08-19T02:06:18.122Z,72.59
2023-08-19T02:08:45.534Z,72.08
2023-08-19T02:11:14.996Z,71.64
2023-08-19T02:13:43.668Z,71.75
2023-08-19T02:16:11.069Z,71.76
2023-08-19T02:18:38.354Z,72.36
2023-08-19T02:21:05.640Z,72.94
2023-08-19T02:23:32.944Z,72.21
2023-08-19T02:26:00.219Z,72.11
2023-08-19T02:28:28.732Z,72.44
2023-08-19T02:31:01.920Z,72.86
2023-08-19T02:33:32.370Z,72.63
2023-08-19T02:35:59.770Z,72.36
2023-08-19T02:38:27.149Z,72.04
2023-08-19T02:40:54.783Z,73.25
2023-08-19T02:43:22.067Z,73.01
2023-08-19T02:45:49.489Z,74.15
2023-08-19T02:48:17.328Z,75.36
2023-08-19T02:50:47.433Z,75.43
2023-08-19T02:53:14.775Z,75.18
2023-08-19T02:55:42.662Z,73.99
2023-08-19T02:58:10.856Z,74.52
2023-08-19T03:00:38.349Z,74.02
2023-08-19T03:03:07.149Z,73.75
2023-08-19T03:05:40.716Z,73.36
2023-08-19T03:08:09.624Z,73.86
2023-08-19T03:10:38.630Z,73.96
2023-08-19T03:13:07.244Z,73.47
2023-08-19T03:15:39.576Z,73.74
2023-08-19T03:18:07.251Z,74.08
2023-08-19T03:20:35.343Z,74.29
2023-08-19T03:23:02.906Z,73.87
2023-08-19T03:25:30.391Z,72.84
2023-08-19T03:27:59.825Z,72.88
2023-08-19T03:30:27.118Z,72.79
2023-08-19T03:32:54.501Z,73.03
2023-08-19T03:35:22.106Z,73.82
2023-08-19T03:37:49.503Z,75.00
2023-08-19T03:40:16.903Z,75.39
2023-08-19T03:42:44.276Z,75.77
2023-08-19T03:45:11.582Z,75.16
2023-08-19T03:47:38.897Z,74.08
2023-08-19T03:50:06.827Z,73.92
2023-08-19T03:52:34.177Z,74.45
2023-08-19T03:55:01.569Z,75.11
2023-08-19T03:57:29.021Z,75.44
2023-08-19T03:59:57.008Z,75.29
2023-08-19T04:02:24.488Z,74.96
2023-08-19T04:05:07.456Z,74.95
2023-08-19T04:07:36.121Z,74.46
2023-08-19T04:10:05.207Z,74.67
2023-08-19T04:12:36.095Z,73.96
2023-08-19T04:15:04.380Z,73.92
2023-08-19T04:17:35.660Z,75.51
2023-08-19T04:20:10.201Z,75.47
2023-08-19T04:22:41.813Z,75.66
2023-08-19T04:25:09.402Z,76.02
2023-08-19T04:27:36.838Z,75.14
2023-08-19T04:30:06.399Z,74.39
2023-08-19T04:32:34.630Z,74.37
2023-08-19T04:35:02.454Z,76.42
2023-08-19T04:37:30.156Z,76.39
2023-08-19T04:39:58.005Z,75.18
2023-08-19T04:42:32.823Z,75.35
2023-08-19T04:45:00.215Z,75.22
2023-08-19T04:47:29.697Z,75.45
2023-08-19T04:50:00.421Z,76.53
2023-08-19T04:52:28.165Z,76.20
2023-08-19T04:54:55.599Z,77.31
2023-08-19T04:57:23.005Z,77.47
2023-08-19T04:59:51.197Z,76.07
2023-08-19T05:02:18.561Z,77.67
2023-08-19T05:04:46.042Z,77.65
2023-08-19T05:07:13.426Z,78.32
2023-08-19T05:09:40.790Z,78.17
2023-08-19T05:12:08.502Z,77.76
2023-08-19T05:14:35.841Z,77.18
2023-08-19T05:17:03.201Z,77.59
2023-08-19T05:19:32.654Z,77.26
2023-08-19T05:21:59.950Z,76.74
2023-08-19T05:24:27.412Z,77.53
2023-08-19T05:26:54.971Z,77.21
2023-08-19T05:29:22.364Z,77.09
2023-08-19T05:31:50.060Z,77.99
2023-08-19T05:34:17.557Z,79.23
2023-08-19T05:36:46.448Z,70.15
2023-08-19T05:39:13.837Z,72.38
2023-08-19T05:41:41.266Z,73.10
2023-08-19T05:44:08.586Z,73.14
2023-08-19T05:46:35.880Z,71.73
2023-08-19T05:49:03.394Z,70.25
2023-08-19T05:51:30.938Z,68.57
2023-08-19T05:54:02.124Z,67.39
2023-08-19T05:56:29.559Z,67.70
2023-08-19T05:58:56.994Z,69.20
2023-08-19T06:01:25.152Z,68.93
2023-08-19T06:03:52.794Z,68.19
2023-08-19T06:06:20.273Z,68.86
2023-08-19T06:08:47.660Z,68.60
2023-08-19T06:11:15.112Z,67.94
2023-08-19T06:13:42.741Z,66.42
2023-08-19T06:16:10.083Z,68.30
2023-08-19T06:18:37.454Z,68.58
2023-08-19T06:21:04.786Z,67.46
2023-08-19T06:23:32.199Z,67.29
2023-08-19T06:25:59.706Z,67.91
2023-08-19T06:28:27.099Z,66.35
2023-08-19T06:30:55.041Z,65.95
2023-08-19T06:33:22.952Z,65.61
2023-08-19T06:35:50.933Z,65.71
2023-08-19T06:38:28.572Z,64.37
2023-08-19T06:41:04.122Z,60.59
2023-08-19T06:43:32.601Z,55.06
2023-08-19T06:46:03.986Z,52.28
2023-08-19T06:48:32.900Z,47.93
2023-08-19T06:51:01.835Z,45.75
2023-08-19T06:53:29.687Z,44.91
2023-08-19T06:55:59.790Z,43.80
2023-08-19T06:58:30.335Z,46.31
2023-08-19T07:01:04.572Z,48.56
2023-08-19T07:03:34.382Z,49.68
2023-08-19T07:06:03.924Z,51.12
2023-08-19T07:08:33.033Z,52.40
2023-08-19T07:11:02.225Z,52.83
2023-08-19T07:13:29.866Z,52.19
2023-08-19T07:16:03.437Z,52.42
2023-08-19T07:18:42.028Z,52.54
2023-08-19T07:21:13.102Z,52.92
2023-08-19T07:23:48.704Z,53.78
2023-08-19T07:26:16.733Z,53.18
2023-08-19T07:28:44.399Z,52.68
2023-08-19T07:31:12.671Z,51.74
2023-08-19T07:33:40.066Z,52.62
2023-08-19T07:36:07.581Z,52.82
2023-08-19T07:38:34.939Z,52.38
2023-08-19T07:41:04.695Z,52.39
2023-08-19T07:43:32.004Z,51.77
2023-08-19T07:46:00.439Z,49.96
2023-08-19T07:48:27.805Z,50.56
2023-08-19T07:50:55.161Z,49.44
2023-08-19T07:53:22.464Z,49.99
2023-08-19T07:55:49.933Z,50.22
2023-08-19T07:58:18.014Z,49.16
2023-08-19T08:00:45.390Z,49.87
2023-08-19T08:03:12.762Z,50.69
2023-08-19T08:05:40.611Z,48.52
2023-08-19T08:08:08.033Z,49.07
2023-08-19T08:10:35.378Z,46.70
2023-08-19T08:13:02.866Z,46.70
2023-08-19T08:15:32.754Z,45.87
2023-08-19T08:18:00.149Z,45.21
2023-08-19T08:20:27.589Z,47.30
2023-08-19T08:22:54.929Z,46.92
2023-08-19T08:25:22.244Z,45.20
2023-08-19T08:27:49.628Z,45.02
2023-08-19T08:30:16.987Z,44.22
2023-08-19T08:32:44.354Z,43.61
2023-08-19T08:35:11.812Z,42.61
2023-08-19T08:37:39.161Z,42.90
2023-08-19T08:40:07.082Z,43.18
2023-08-19T08:42:34.893Z,43.09
2023-08-19T08:45:02.501Z,42.58
2023-08-19T08:47:31.950Z,43.17
2023-08-19T08:50:00.327Z,42.44
2023-08-19T08:52:27.747Z,41.40
2023-08-19T08:54:57.108Z,41.40
2023-08-19T08:57:24.405Z,41.49
2023-08-19T08:59:51.835Z,40.10
2023-08-19T09:02:22.667Z,40.55
2023-08-19T09:04:50.155Z,40.90
2023-08-19T09:07:26.206Z,41.40
2023-08-19T09:09:54.294Z,41.06
2023-08-19T09:12:23.316Z,41.47
2023-08-19T09:14:58.715Z,41.75
2023-08-19T09:17:26.160Z,41.19
2023-08-19T09:19:53.564Z,41.07
2023-08-19T09:22:22.528Z,40.85
2023-08-19T09:24:50.953Z,41.15
2023-08-19T09:27:26.815Z,40.77
2023-08-19T09:29:54.515Z,40.82
2023-08-19T09:32:33.274Z,39.96
2023-08-19T09:35:09.623Z,39.48
2023-08-19T09:37:37.680Z,40.38
2023-08-19T09:40:09.570Z,40.43
2023-08-19T09:42:37.573Z,40.62
2023-08-19T09:45:06.082Z,40.20
2023-08-19T09:47:47.904Z,40.55
2023-08-19T09:50:19.752Z,40.33
2023-08-19T09:53:00.756Z,40.55
2023-08-19T09:55:31.424Z,39.90
2023-08-19T09:57:59.005Z,39.97
2023-08-19T10:00:26.450Z,40.51
2023-08-19T10:02:53.848Z,40.20
2023-08-19T10:05:21.875Z,40.66
2023-08-19T10:08:00.073Z,39.83
2023-08-19T10:10:31.152Z,40.56
2023-08-19T10:12:58.929Z,40.59
2023-08-19T10:15:27.858Z,39.79
2023-08-19T10:17:58.527Z,39.55
2023-08-19T10:20:29.092Z,39.35
2023-08-19T10:23:00.021Z,39.13
2023-08-19T10:25:31.775Z,39.08
2023-08-19T10:28:13.890Z,38.55
2023-08-19T10:30:41.334Z,39.84
2023-08-19T10:33:29.211Z,40.60
2023-08-19T10:36:01.820Z,39.73
2023-08-19T10:38:58.386Z,39.90
2023-08-19T10:41:28.183Z,39.29
2023-08-19T10:43:58.419Z,39.58
2023-08-19T10:46:35.318Z,39.30
2023-08-19T10:49:07.851Z,39.84
2023-08-19T10:52:06.960Z,39.86
2023-08-19T10:54:42.034Z,39.50
2023-08-19T10:57:23.672Z,39.84
2023-08-19T10:59:55.431Z,38.98
2023-08-19T11:02:23.270Z,39.32
2023-08-19T11:04:54.664Z,39.57
2023-08-19T11:07:22.371Z,38.97
2023-08-19T11:09:50.851Z,38.44
2023-08-19T11:12:19.812Z,38.55
2023-08-19T11:14:51.905Z,38.97
2023-08-19T11:17:27.613Z,38.37
2023-08-19T11:19:55.005Z,38.43
2023-08-19T11:22:22.719Z,38.60
2023-08-19T11:24:51.422Z,39.11
2023-08-19T11:27:19.976Z,39.03
2023-08-19T11:29:48.296Z,38.59
2023-08-19T11:32:20.837Z,37.85
2023-08-19T11:34:48.375Z,39.49
2023-08-19T11:37:17.204Z,39.40
2023-08-19T11:39:46.271Z,38.64
2023-08-19T11:42:14.256Z,38.06
2023-08-19T11:44:45.025Z,38.90
2023-08-19T11:47:13.213Z,39.06
2023-08-19T11:49:43.657Z,39.17
2023-08-19T11:52:23.051Z,38.24
2023-08-19T11:55:04.451Z,38.29
2023-08-19T11:57:35.993Z,39.08
2023-08-19T12:00:06.049Z,37.70
2023-08-19T12:02:40.594Z,38.87
2023-08-19T12:05:09.212Z,37.64
2023-08-19T12:07:36.610Z,38.15
2023-08-19T12:10:05.206Z,37.94
2023-08-19T12:12:33.339Z,37.64
2023-08-19T12:15:02.045Z,37.40
2023-08-19T12:17:30.714Z,38.01
2023-08-19T12:19:58.259Z,38.25
2023-08-19T12:22:25.653Z,39.63
2023-08-19T12:24:53.057Z,39.16
2023-08-19T12:27:20.449Z,39.35
2023-08-19T12:29:49.825Z,38.55
2023-08-19T12:32:17.156Z,39.62
2023-08-19T12:34:44.456Z,40.25
2023-08-19T12:37:11.788Z,39.59
2023-08-19T12:39:39.112Z,39.99
2023-08-19T12:42:06.605Z,39.47
2023-08-19T12:44:34.045Z,39.13
2023-08-19T12:47:02.136Z,38.54
2023-08-19T12:49:29.509Z,38.67
2023-08-19T12:51:57.506Z,39.27
2023-08-19T12:54:24.940Z,39.20
2023-08-19T12:56:52.285Z,38.43
2023-08-19T12:59:19.745Z,37.85
2023-08-19T13:01:47.069Z,37.45
2023-08-19T13:04:14.453Z,37.78
2023-08-19T13:06:42.792Z,37.73
2023-08-19T13:09:10.737Z,39.54
2023-08-19T13:11:38.472Z,39.39
2023-08-19T13:14:05.943Z,38.09
2023-08-19T13:16:33.240Z,38.35
2023-08-19T13:19:01.642Z,37.84
2023-08-19T13:21:29.021Z,38.26
2023-08-19T13:23:56.410Z,39.07
2023-08-19T13:26:23.731Z,40.03
2023-08-19T13:28:51.081Z,38.37
2023-08-19T13:31:19.535Z,39.38
2023-08-19T13:33:47.288Z,38.89
2023-08-19T13:36:14.664Z,37.78
2023-08-19T13:38:44.122Z,38.25
2023-08-19T13:41:12.036Z,38.98
2023-08-19T13:43:40.431Z,39.19
2023-08-19T13:46:08.480Z,38.78
2023-08-19T13:48:35.852Z,37.68
2023-08-19T13:51:03.227Z,38.83
2023-08-19T13:53:32.158Z,40.18
2023-08-19T13:55:59.528Z,38.21
2023-08-19T13:58:26.864Z,38.16
2023-08-19T14:00:54.200Z,38.35
2023-08-19T14:03:22.298Z,39.42
2023-08-19T14:05:49.691Z,38.82
2023-08-19T14:08:19.495Z,38.20
2023-08-19T14:10:46.953Z,37.73
2023-08-19T14:13:14.327Z,39.28
2023-08-19T14:15:41.900Z,40.28
2023-08-19T14:18:09.300Z,40.23
2023-08-19T14:20:36.664Z,40.84
2023-08-19T14:23:04.456Z,41.30
2023-08-19T14:25:31.857Z,39.30
2023-08-19T14:27:59.223Z,40.43
2023-08-19T14:30:26.560Z,39.90
2023-08-19T14:32:53.945Z,39.84
2023-08-19T14:35:22.046Z,39.12
2023-08-19T14:37:49.902Z,40.43
2023-08-19T14:40:20.239Z,40.47
2023-08-19T14:42:48.409Z,40.57
2023-08-19T14:45:16.374Z,41.20
2023-08-19T14:47:43.782Z,40.96
2023-08-19T14:50:11.329Z,40.75
2023-08-19T14:52:38.720Z,41.01
2023-08-19T14:55:11.858Z,40.84
2023-08-19T14:57:39.563Z,41.66
2023-08-19T15:00:13.753Z,42.21
2023-08-19T15:02:49.322Z,41.76
2023-08-19T15:05:17.218Z,42.32
2023-08-19T15:07:45.289Z,41.26
2023-08-19T15:10:12.701Z,42.20
2023-08-19T15:12:40.552Z,42.61
2023-08-19T15:15:09.442Z,43.42
2023-08-19T15:17:37.052Z,42.17
2023-08-19T15:20:05.417Z,43.39
2023-08-19T15:22:32.784Z,42.86
2023-08-19T15:25:00.230Z,43.71
2023-08-19T15:27:27.569Z,42.68
2023-08-19T15:29:54.973Z,43.30
2023-08-19T15:32:22.371Z,44.32
2023-08-19T15:34:49.759Z,43.00
2023-08-19T15:37:18.246Z,43.95
2023-08-19T15:39:45.691Z,43.52
2023-08-19T15:42:13.497Z,43.45
2023-08-19T15:44:41.050Z,44.23
2023-08-19T15:47:08.751Z,43.45
2023-08-19T15:49:36.107Z,43.75
2023-08-19T15:52:04.093Z,43.63
2023-08-19T15:54:31.468Z,43.78
2023-08-19T15:56:58.806Z,43.78
2023-08-19T15:59:26.172Z,44.42
2023-08-19T16:01:53.414Z,43.88
2023-08-19T16:04:20.743Z,43.47
2023-08-19T16:06:48.136Z,42.94
2023-08-19T16:09:16.956Z,44.23
2023-08-19T16:11:44.365Z,43.77
2023-08-19T16:14:11.708Z,44.28
2023-08-19T16:16:39.025Z,44.63
2023-08-19T16:19:06.501Z,45.28
2023-08-19T16:21:33.959Z,45.68
2023-08-19T16:24:01.396Z,45.72
2023-08-19T16:26:28.662Z,45.26
2023-08-19T16:28:55.948Z,46.15
2023-08-19T16:31:23.299Z,46.44
2023-08-19T16:33:50.658Z,46.74
2023-08-19T16:36:18.050Z,45.54
2023-08-19T16:38:45.398Z,45.95
2023-08-19T16:41:12.736Z,46.68
2023-08-19T16:43:40.134Z,44.66
2023-08-19T16:46:07.555Z,47.12
2023-08-19T16:48:35.056Z,46.65
2023-08-19T16:51:04.092Z,47.55
2023-08-19T16:53:31.476Z,46.18
2023-08-19T16:56:00.377Z,45.97
2023-08-19T16:58:28.079Z,46.05
2023-08-19T17:01:08.495Z,45.77
2023-08-19T17:03:35.826Z,46.14
2023-08-19T17:06:07.516Z,47.12
2023-08-19T17:08:35.597Z,47.68
2023-08-19T17:11:03.473Z,48.94
2023-08-19T17:13:30.879Z,47.72
2023-08-19T17:15:59.180Z,48.69
2023-08-19T17:18:27.164Z,49.71
2023-08-19T17:20:58.796Z,50.46
2023-08-19T17:23:30.130Z,50.55
2023-08-19T17:25:57.686Z,50.02
2023-08-19T17:28:25.379Z,50.03
2023-08-19T17:31:06.901Z,51.09
2023-08-19T17:33:34.529Z,50.91
2023-08-19T17:36:03.927Z,50.34
2023-08-19T17:38:32.471Z,51.31
2023-08-19T17:41:00.985Z,50.79
2023-08-19T17:43:28.659Z,50.99
2023-08-19T17:45:56.119Z,50.98
2023-08-19T17:48:23.556Z,51.44
2023-08-19T17:50:50.979Z,51.53
2023-08-19T17:53:19.075Z,51.71
2023-08-19T17:55:46.440Z,51.89
2023-08-19T17:58:13.805Z,52.19
2023-08-19T18:00:43.802Z,52.45
2023-08-19T18:03:11.632Z,52.76
2023-08-19T18:05:39.070Z,54.45
2023-08-19T18:08:06.995Z,54.72
2023-08-19T18:10:34.413Z,54.54
2023-08-19T18:13:02.076Z,55.05
2023-08-19T18:15:29.499Z,56.03
2023-08-19T18:17:56.925Z,56.83
2023-08-19T18:20:24.351Z,57.07
2023-08-19T18:22:51.727Z,57.41
2023-08-19T18:25:19.093Z,56.70
2023-08-19T18:27:51.756Z,56.75
2023-08-19T18:30:19.837Z,56.42
2023-08-19T18:32:50.230Z,56.71
2023-08-19T18:35:19.227Z,56.57
2023-08-19T18:37:47.035Z,57.35
2023-08-19T18:40:15.896Z,57.65
2023-08-19T18:42:44.251Z,57.79
2023-08-19T18:45:14.129Z,58.25
2023-08-19T18:48:02.211Z,58.66
2023-08-19T18:50:29.731Z,58.70
2023-08-19T18:52:57.178Z,58.79
2023-08-19T18:55:24.636Z,58.99
2023-08-19T18:57:52.004Z,59.43
2023-08-19T19:00:19.507Z,59.77
2023-08-19T19:02:46.993Z,58.45
2023-08-19T19:05:15.233Z,58.35
2023-08-19T19:07:42.921Z,58.87
2023-08-19T19:10:10.771Z,59.25
2023-08-19T19:12:39.587Z,59.51
2023-08-19T19:15:07.674Z,60.04
2023-08-19T19:17:53.025Z,61.53
2023-08-19T19:20:21.673Z,60.81
2023-08-19T19:22:49.980Z,60.80
2023-08-19T19:25:19.137Z,61.22
2023-08-19T19:27:48.049Z,61.84
2023-08-19T19:30:17.509Z,61.80
2023-08-19T19:32:46.126Z,61.97
2023-08-19T19:35:17.502Z,61.37
2023-08-19T19:37:45.577Z,61.33
2023-08-19T19:40:17.920Z,61.39
2023-08-19T19:42:45.905Z,61.27
2023-08-19T19:45:15.785Z,61.68
2023-08-19T19:47:46.813Z,60.99
2023-08-19T19:50:14.147Z,61.39
2023-08-19T19:52:41.712Z,61.16
2023-08-19T19:55:09.923Z,61.30
2023-08-19T19:57:37.981Z,61.98
2023-08-19T20:00:09.210Z,62.43
2023-08-19T20:02:36.969Z,62.47
2023-08-19T20:05:04.894Z,62.62
2023-08-19T20:07:32.305Z,62.42
2023-08-19T20:12:34.960Z,62.43
2023-08-19T20:15:02.418Z,62.49
2023-08-19T20:17:29.804Z,62.20
2023-08-19T20:19:57.207Z,62.51
2023-08-19T20:22:24.648Z,62.49
2023-08-19T20:24:51.923Z,62.80
2023-08-19T20:27:21.792Z,62.63
2023-08-19T20:29:49.179Z,63.26
2023-08-19T20:32:16.484Z,62.63
2023-08-19T20:34:43.904Z,62.84
2023-08-19T20:37:11.228Z,62.66
2023-08-19T20:39:38.510Z,62.31
2023-08-19T20:42:06.008Z,62.21
2023-08-19T20:44:33.378Z,62.17
2023-08-19T20:47:00.680Z,62.18
2023-08-19T20:49:28.203Z,61.82
2023-08-19T20:51:55.567Z,61.44
2023-08-19T20:54:22.831Z,61.26
2023-08-19T20:56:50.212Z,61.63
2023-08-19T20:59:17.628Z,61.63
2023-08-19T21:01:46.288Z,61.64
2023-08-19T21:04:13.717Z,61.79
2023-08-19T21:06:41.119Z,61.99
2023-08-19T21:09:08.451Z,62.49
2023-08-19T21:11:38.201Z,63.15
2023-08-19T21:14:06.003Z,63.45
2023-08-19T21:16:33.630Z,63.68
2023-08-19T21:19:01.031Z,63.58
2023-08-19T21:21:28.330Z,63.98
2023-08-19T21:23:55.704Z,63.92
2023-08-19T21:26:23.017Z,63.90
2023-08-19T21:28:50.443Z,64.59
2023-08-19T21:31:17.849Z,64.77
2023-08-19T21:33:45.192Z,65.19
2023-08-19T21:36:12.566Z,65.65
2023-08-19T21:38:39.900Z,67.13
2023-08-19T21:41:08.486Z,67.56
2023-08-19T21:43:35.829Z,68.22
2023-08-19T21:46:03.295Z,68.26
2023-08-19T21:48:30.631Z,68.75
2023-08-19T21:50:57.983Z,69.26
2023-08-19T21:53:25.454Z,69.14
2023-08-19T21:55:52.868Z,69.53
2023-08-19T21:58:23.171Z,68.74
2023-08-19T22:00:50.767Z,68.98
2023-08-19T22:03:18.260Z,69.02
2023-08-19T22:05:47.627Z,70.07
2023-08-19T22:08:15.660Z,68.94
2023-08-19T22:10:43.659Z,69.22
2023-08-19T22:13:11.549Z,68.46
2023-08-19T22:15:39.121Z,67.71
2023-08-19T22:18:07.306Z,68.42
2023-08-19T22:23:05.668Z,67.41
2023-08-19T22:25:33.174Z,67.84
2023-08-19T22:28:00.819Z,67.35
2023-08-19T22:30:28.168Z,66.13
2023-08-19T22:32:55.607Z,66.81
2023-08-19T22:35:23.135Z,67.02
2023-08-19T22:37:50.490Z,67.06
2023-08-19T22:40:17.977Z,67.72
2023-08-19T22:42:46.414Z,67.49
2023-08-19T22:45:15.957Z,67.25
2023-08-19T22:47:45.199Z,67.42
2023-08-19T22:50:14.383Z,67.68
2023-08-19T22:52:41.772Z,67.97
2023-08-19T22:55:10.916Z,67.55
2023-08-19T22:57:38.479Z,66.65
2023-08-19T23:00:06.915Z,66.50
2023-08-19T23:02:35.501Z,65.45
2023-08-19T23:05:03.064Z,65.06
2023-08-19T23:07:32.675Z,64.17
2023-08-19T23:10:00.892Z,65.56
2023-08-19T23:12:28.286Z,65.37
2023-08-19T23:14:57.719Z,65.87
2023-08-19T23:17:27.388Z,66.27
2023-08-19T23:19:54.718Z,66.04
2023-08-19T23:22:22.057Z,66.07
2023-08-19T23:24:50.311Z,65.94
2023-08-19T23:27:18.112Z,66.72
2023-08-19T23:29:45.437Z,67.32
2023-08-19T23:32:12.789Z,67.54
2023-08-19T23:34:40.167Z,67.80
2023-08-19T23:37:07.514Z,67.73
2023-08-19T23:39:35.001Z,67.94
2023-08-19T23:42:02.322Z,68.89
2023-08-19T23:44:29.718Z,68.84
2023-08-19T23:46:59.868Z,69.14
2023-08-19T23:49:27.491Z,69.64
2023-08-19T23:51:58.735Z,69.73
2023-08-19T23:54:28.826Z,70.13
2023-08-19T23:56:56.432Z,70.34
2023-08-19T23:59:24.141Z,70.36
